sensor_id;sensor_type;location;lat;lon;timestamp;P1;durP1;ratioP1;P2;durP2;ratioP2
5428;SDS011;2737;52.386;9.980;2022-12-11T00:00:03;26.90;;;13.83;;
5428;SDS011;2737;52.386;9.980;2022-12-11T00:02:30;27.47;;;13.40;;
5428;SDS011;2737;52.386;9.980;2022-12-11T00:04:57;30.03;;;13.20;;
5428;SDS011;2737;52.386;9.980;2022-12-11T00:07:24;29.37;;;13.47;;
5428;SDS011;2737;52.386;9.980;2022-12-11T00:09:51;29.17;;;13.93;;
5428;SDS011;2737;52.386;9.980;2022-12-11T00:12:20;30.03;;;14.27;;
5428;SDS011;2737;52.386;9.980;2022-12-11T00:14:47;30.13;;;14.90;;
5428;SDS011;2737;52.386;9.980;2022-12-11T00:17:14;30.63;;;13.73;;
5428;SDS011;2737;52.386;9.980;2022-12-11T00:19:41;28.23;;;13.63;;
5428;SDS011;2737;52.386;9.980;2022-12-11T00:22:08;33.50;;;15.30;;
5428;SDS011;2737;52.386;9.980;2022-12-11T00:24:35;37.30;;;17.23;;
5428;SDS011;2737;52.386;9.980;2022-12-11T00:27:02;31.93;;;14.23;;
5428;SDS011;2737;52.386;9.980;2022-12-11T00:29:31;32.77;;;16.17;;
5428;SDS011;2737;52.386;9.980;2022-12-11T00:31:58;31.80;;;16.20;;
5428;SDS011;2737;52.386;9.980;2022-12-11T00:34:25;34.47;;;16.40;;
5428;SDS011;2737;52.386;9.980;2022-12-11T00:36:52;29.60;;;14.37;;
5428;SDS011;2737;52.386;9.980;2022-12-11T00:39:19;32.83;;;15.50;;
5428;SDS011;2737;52.386;9.980;2022-12-11T00:41:46;31.10;;;14.30;;
5428;SDS011;2737;52.386;9.980;2022-12-11T00:44:13;29.40;;;14.67;;
5428;SDS011;2737;52.386;9.980;2022-12-11T00:46:42;30.57;;;13.30;;
5428;SDS011;2737;52.386;9.980;2022-12-11T00:49:09;29.83;;;14.73;;
5428;SDS011;2737;52.386;9.980;2022-12-11T00:51:36;25.53;;;13.10;;
5428;SDS011;2737;52.386;9.980;2022-12-11T00:54:03;25.03;;;12.97;;
5428;SDS011;2737;52.386;9.980;2022-12-11T00:56:30;25.90;;;11.70;;
5428;SDS011;2737;52.386;9.980;2022-12-11T00:58:57;28.70;;;13.10;;
5428;SDS011;2737;52.386;9.980;2022-12-11T01:01:24;25.83;;;12.10;;
5428;SDS011;2737;52.386;9.980;2022-12-11T01:03:53;28.30;;;13.87;;
5428;SDS011;2737;52.386;9.980;2022-12-11T01:06:20;28.43;;;12.93;;
5428;SDS011;2737;52.386;9.980;2022-12-11T01:08:48;25.13;;;12.03;;
5428;SDS011;2737;52.386;9.980;2022-12-11T01:11:37;27.93;;;13.47;;
5428;SDS011;2737;52.386;9.980;2022-12-11T01:14:04;26.60;;;12.83;;
5428;SDS011;2737;52.386;9.980;2022-12-11T01:16:31;24.70;;;12.30;;
5428;SDS011;2737;52.386;9.980;2022-12-11T01:19:00;27.57;;;13.40;;
5428;SDS011;2737;52.386;9.980;2022-12-11T01:21:27;33.50;;;13.70;;
5428;SDS011;2737;52.386;9.980;2022-12-11T01:23:54;31.07;;;14.67;;
5428;SDS011;2737;52.386;9.980;2022-12-11T01:26:21;30.23;;;14.67;;
5428;SDS011;2737;52.386;9.980;2022-12-11T01:28:48;30.40;;;14.90;;
5428;SDS011;2737;52.386;9.980;2022-12-11T01:31:17;29.97;;;14.57;;
5428;SDS011;2737;52.386;9.980;2022-12-11T01:33:45;31.67;;;15.50;;
5428;SDS011;2737;52.386;9.980;2022-12-11T01:36:14;28.40;;;14.87;;
5428;SDS011;2737;52.386;9.980;2022-12-11T01:38:43;33.50;;;14.90;;
5428;SDS011;2737;52.386;9.980;2022-12-11T01:41:10;30.87;;;14.40;;
5428;SDS011;2737;52.386;9.980;2022-12-11T01:46:23;33.97;;;15.83;;
5428;SDS011;2737;52.386;9.980;2022-12-11T01:48:50;31.00;;;15.10;;
5428;SDS011;2737;52.386;9.980;2022-12-11T01:51:20;31.93;;;14.73;;
5428;SDS011;2737;52.386;9.980;2022-12-11T01:53:49;25.37;;;14.03;;
5428;SDS011;2737;52.386;9.980;2022-12-11T01:56:18;34.63;;;15.97;;
5428;SDS011;2737;52.386;9.980;2022-12-11T01:58:46;25.10;;;13.47;;
5428;SDS011;2737;52.386;9.980;2022-12-11T02:01:17;30.67;;;14.83;;
5428;SDS011;2737;52.386;9.980;2022-12-11T02:03:50;34.53;;;15.20;;
5428;SDS011;2737;52.386;9.980;2022-12-11T02:06:34;31.83;;;15.57;;
5428;SDS011;2737;52.386;9.980;2022-12-11T02:09:03;30.17;;;14.37;;
5428;SDS011;2737;52.386;9.980;2022-12-11T02:11:34;29.13;;;13.47;;
5428;SDS011;2737;52.386;9.980;2022-12-11T02:14:11;32.70;;;16.03;;
5428;SDS011;2737;52.386;9.980;2022-12-11T02:16:46;30.70;;;14.23;;
5428;SDS011;2737;52.386;9.980;2022-12-11T02:19:27;30.30;;;14.70;;
5428;SDS011;2737;52.386;9.980;2022-12-11T02:22:07;32.37;;;14.97;;
5428;SDS011;2737;52.386;9.980;2022-12-11T02:24:42;30.70;;;15.30;;
5428;SDS011;2737;52.386;9.980;2022-12-11T02:27:22;37.83;;;15.03;;
5428;SDS011;2737;52.386;9.980;2022-12-11T02:29:58;31.53;;;15.70;;
5428;SDS011;2737;52.386;9.980;2022-12-11T02:32:31;30.50;;;13.90;;
5428;SDS011;2737;52.386;9.980;2022-12-11T02:35:06;33.63;;;15.00;;
5428;SDS011;2737;52.386;9.980;2022-12-11T02:37:37;31.83;;;14.10;;
5428;SDS011;2737;52.386;9.980;2022-12-11T02:40:09;29.17;;;13.77;;
5428;SDS011;2737;52.386;9.980;2022-12-11T02:42:39;27.80;;;13.80;;
5428;SDS011;2737;52.386;9.980;2022-12-11T02:45:10;33.60;;;14.97;;
5428;SDS011;2737;52.386;9.980;2022-12-11T02:47:39;28.20;;;14.43;;
5428;SDS011;2737;52.386;9.980;2022-12-11T02:50:09;28.53;;;14.57;;
5428;SDS011;2737;52.386;9.980;2022-12-11T02:52:41;30.00;;;13.77;;
5428;SDS011;2737;52.386;9.980;2022-12-11T02:55:10;28.47;;;13.93;;
5428;SDS011;2737;52.386;9.980;2022-12-11T02:57:41;33.83;;;15.43;;
5428;SDS011;2737;52.386;9.980;2022-12-11T03:00:13;31.30;;;14.30;;
5428;SDS011;2737;52.386;9.980;2022-12-11T03:02:42;32.20;;;14.70;;
5428;SDS011;2737;52.386;9.980;2022-12-11T03:05:11;31.10;;;14.80;;
5428;SDS011;2737;52.386;9.980;2022-12-11T03:07:40;28.73;;;13.80;;
5428;SDS011;2737;52.386;9.980;2022-12-11T03:10:09;30.63;;;14.60;;
5428;SDS011;2737;52.386;9.980;2022-12-11T03:12:39;27.23;;;13.33;;
5428;SDS011;2737;52.386;9.980;2022-12-11T03:15:09;29.00;;;14.50;;
5428;SDS011;2737;52.386;9.980;2022-12-11T03:17:41;28.20;;;14.60;;
5428;SDS011;2737;52.386;9.980;2022-12-11T03:20:18;26.83;;;12.40;;
5428;SDS011;2737;52.386;9.980;2022-12-11T03:22:53;30.90;;;14.60;;
5428;SDS011;2737;52.386;9.980;2022-12-11T03:25:25;28.90;;;13.80;;
5428;SDS011;2737;52.386;9.980;2022-12-11T03:28:00;28.10;;;14.07;;
5428;SDS011;2737;52.386;9.980;2022-12-11T03:30:35;30.10;;;15.00;;
5428;SDS011;2737;52.386;9.980;2022-12-11T03:33:05;27.37;;;13.80;;
5428;SDS011;2737;52.386;9.980;2022-12-11T03:35:37;31.20;;;15.40;;
5428;SDS011;2737;52.386;9.980;2022-12-11T03:38:07;29.47;;;15.00;;
5428;SDS011;2737;52.386;9.980;2022-12-11T03:40:39;27.83;;;13.47;;
5428;SDS011;2737;52.386;9.980;2022-12-11T03:43:08;26.50;;;13.00;;
5428;SDS011;2737;52.386;9.980;2022-12-11T03:45:37;37.23;;;15.53;;
5428;SDS011;2737;52.386;9.980;2022-12-11T03:48:06;31.73;;;14.77;;
5428;SDS011;2737;52.386;9.980;2022-12-11T03:50:35;29.73;;;14.33;;
5428;SDS011;2737;52.386;9.980;2022-12-11T03:53:03;30.17;;;14.57;;
5428;SDS011;2737;52.386;9.980;2022-12-11T03:55:30;31.17;;;15.20;;
5428;SDS011;2737;52.386;9.980;2022-12-11T03:57:59;31.20;;;14.33;;
5428;SDS011;2737;52.386;9.980;2022-12-11T04:00:26;29.83;;;14.70;;
5428;SDS011;2737;52.386;9.980;2022-12-11T04:02:53;30.60;;;14.83;;
5428;SDS011;2737;52.386;9.980;2022-12-11T04:05:42;35.20;;;15.30;;
5428;SDS011;2737;52.386;9.980;2022-12-11T04:08:10;28.23;;;14.10;;
5428;SDS011;2737;52.386;9.980;2022-12-11T04:10:37;30.97;;;15.73;;
5428;SDS011;2737;52.386;9.980;2022-12-11T04:13:05;27.33;;;13.37;;
5428;SDS011;2737;52.386;9.980;2022-12-11T04:15:32;30.40;;;14.77;;
5428;SDS011;2737;52.386;9.980;2022-12-11T04:17:59;27.17;;;12.63;;
5428;SDS011;2737;52.386;9.980;2022-12-11T04:20:44;31.23;;;15.40;;
5428;SDS011;2737;52.386;9.980;2022-12-11T04:23:29;27.97;;;13.60;;
5428;SDS011;2737;52.386;9.980;2022-12-11T04:26:14;30.50;;;14.00;;
5428;SDS011;2737;52.386;9.980;2022-12-11T04:28:43;31.60;;;13.47;;
5428;SDS011;2737;52.386;9.980;2022-12-11T04:31:11;25.53;;;13.17;;
5428;SDS011;2737;52.386;9.980;2022-12-11T04:33:39;27.53;;;14.00;;
5428;SDS011;2737;52.386;9.980;2022-12-11T04:36:08;29.17;;;14.47;;
5428;SDS011;2737;52.386;9.980;2022-12-11T04:38:36;33.63;;;15.13;;
5428;SDS011;2737;52.386;9.980;2022-12-11T04:41:04;29.40;;;14.63;;
5428;SDS011;2737;52.386;9.980;2022-12-11T04:43:32;25.70;;;13.90;;
5428;SDS011;2737;52.386;9.980;2022-12-11T04:46:00;29.93;;;13.27;;
5428;SDS011;2737;52.386;9.980;2022-12-11T04:48:28;24.20;;;12.43;;
5428;SDS011;2737;52.386;9.980;2022-12-11T04:50:55;28.90;;;14.90;;
5428;SDS011;2737;52.386;9.980;2022-12-11T04:53:24;31.00;;;14.17;;
5428;SDS011;2737;52.386;9.980;2022-12-11T04:55:51;26.80;;;13.43;;
5428;SDS011;2737;52.386;9.980;2022-12-11T04:58:19;26.53;;;13.53;;
5428;SDS011;2737;52.386;9.980;2022-12-11T05:00:46;26.83;;;14.53;;
5428;SDS011;2737;52.386;9.980;2022-12-11T05:03:14;28.10;;;13.00;;
5428;SDS011;2737;52.386;9.980;2022-12-11T05:05:46;24.37;;;12.50;;
5428;SDS011;2737;52.386;9.980;2022-12-11T05:08:14;28.97;;;13.53;;
5428;SDS011;2737;52.386;9.980;2022-12-11T05:10:43;26.10;;;12.73;;
5428;SDS011;2737;52.386;9.980;2022-12-11T05:13:10;26.97;;;12.80;;
5428;SDS011;2737;52.386;9.980;2022-12-11T05:15:37;25.57;;;13.30;;
5428;SDS011;2737;52.386;9.980;2022-12-11T05:18:05;27.93;;;13.87;;
5428;SDS011;2737;52.386;9.980;2022-12-11T05:20:32;28.20;;;14.73;;
5428;SDS011;2737;52.386;9.980;2022-12-11T05:22:59;28.37;;;13.90;;
5428;SDS011;2737;52.386;9.980;2022-12-11T05:25:26;31.17;;;13.47;;
5428;SDS011;2737;52.386;9.980;2022-12-11T05:27:54;36.17;;;14.97;;
5428;SDS011;2737;52.386;9.980;2022-12-11T05:30:21;30.23;;;15.73;;
5428;SDS011;2737;52.386;9.980;2022-12-11T05:32:48;28.17;;;13.87;;
5428;SDS011;2737;52.386;9.980;2022-12-11T05:35:15;30.70;;;14.57;;
5428;SDS011;2737;52.386;9.980;2022-12-11T05:37:42;29.40;;;14.60;;
5428;SDS011;2737;52.386;9.980;2022-12-11T05:40:10;29.00;;;14.33;;
5428;SDS011;2737;52.386;9.980;2022-12-11T05:42:37;29.10;;;12.70;;
5428;SDS011;2737;52.386;9.980;2022-12-11T05:45:06;30.37;;;14.67;;
5428;SDS011;2737;52.386;9.980;2022-12-11T05:47:34;33.30;;;14.80;;
5428;SDS011;2737;52.386;9.980;2022-12-11T05:50:01;27.73;;;14.23;;
5428;SDS011;2737;52.386;9.980;2022-12-11T05:52:30;29.60;;;14.63;;
5428;SDS011;2737;52.386;9.980;2022-12-11T05:54:57;31.47;;;15.50;;
5428;SDS011;2737;52.386;9.980;2022-12-11T05:57:24;30.23;;;13.43;;
5428;SDS011;2737;52.386;9.980;2022-12-11T05:59:51;32.57;;;13.83;;
5428;SDS011;2737;52.386;9.980;2022-12-11T06:02:20;31.87;;;13.67;;
5428;SDS011;2737;52.386;9.980;2022-12-11T06:04:47;26.27;;;12.63;;
5428;SDS011;2737;52.386;9.980;2022-12-11T06:07:14;29.43;;;14.97;;
5428;SDS011;2737;52.386;9.980;2022-12-11T06:09:41;26.73;;;13.00;;
5428;SDS011;2737;52.386;9.980;2022-12-11T06:12:08;27.00;;;13.57;;
5428;SDS011;2737;52.386;9.980;2022-12-11T06:14:35;30.73;;;15.50;;
5428;SDS011;2737;52.386;9.980;2022-12-11T06:17:02;29.90;;;14.43;;
5428;SDS011;2737;52.386;9.980;2022-12-11T06:19:30;26.23;;;13.50;;
5428;SDS011;2737;52.386;9.980;2022-12-11T06:21:57;27.67;;;13.60;;
5428;SDS011;2737;52.386;9.980;2022-12-11T06:24:25;27.30;;;13.77;;
5428;SDS011;2737;52.386;9.980;2022-12-11T06:26:52;28.00;;;12.37;;
5428;SDS011;2737;52.386;9.980;2022-12-11T06:29:19;27.60;;;13.73;;
5428;SDS011;2737;52.386;9.980;2022-12-11T06:31:46;28.43;;;14.30;;
5428;SDS011;2737;52.386;9.980;2022-12-11T06:34:13;28.73;;;14.17;;
5428;SDS011;2737;52.386;9.980;2022-12-11T06:36:41;28.80;;;13.03;;
5428;SDS011;2737;52.386;9.980;2022-12-11T06:39:08;28.27;;;13.80;;
5428;SDS011;2737;52.386;9.980;2022-12-11T06:41:35;28.53;;;14.10;;
5428;SDS011;2737;52.386;9.980;2022-12-11T06:44:02;27.20;;;12.47;;
5428;SDS011;2737;52.386;9.980;2022-12-11T06:46:29;27.07;;;14.20;;
5428;SDS011;2737;52.386;9.980;2022-12-11T06:48:56;29.33;;;13.97;;
5428;SDS011;2737;52.386;9.980;2022-12-11T06:51:23;30.93;;;13.77;;
5428;SDS011;2737;52.386;9.980;2022-12-11T06:53:52;30.50;;;15.23;;
5428;SDS011;2737;52.386;9.980;2022-12-11T06:56:20;30.70;;;15.03;;
5428;SDS011;2737;52.386;9.980;2022-12-11T06:58:48;30.77;;;14.40;;
5428;SDS011;2737;52.386;9.980;2022-12-11T07:01:16;28.40;;;13.97;;
5428;SDS011;2737;52.386;9.980;2022-12-11T07:03:45;32.37;;;13.70;;
5428;SDS011;2737;52.386;9.980;2022-12-11T07:06:13;32.33;;;14.40;;
5428;SDS011;2737;52.386;9.980;2022-12-11T07:08:40;32.93;;;15.17;;
5428;SDS011;2737;52.386;9.980;2022-12-11T07:11:09;30.80;;;14.07;;
5428;SDS011;2737;52.386;9.980;2022-12-11T07:13:38;27.83;;;14.00;;
5428;SDS011;2737;52.386;9.980;2022-12-11T07:16:07;31.00;;;14.70;;
5428;SDS011;2737;52.386;9.980;2022-12-11T07:18:36;32.67;;;14.60;;
5428;SDS011;2737;52.386;9.980;2022-12-11T07:21:04;28.53;;;13.80;;
5428;SDS011;2737;52.386;9.980;2022-12-11T07:23:32;29.90;;;14.40;;
5428;SDS011;2737;52.386;9.980;2022-12-11T07:26:02;36.57;;;15.60;;
5428;SDS011;2737;52.386;9.980;2022-12-11T07:28:31;25.37;;;12.17;;
5428;SDS011;2737;52.386;9.980;2022-12-11T07:30:59;31.20;;;14.70;;
5428;SDS011;2737;52.386;9.980;2022-12-11T07:33:29;27.87;;;12.50;;
5428;SDS011;2737;52.386;9.980;2022-12-11T07:35:59;27.83;;;12.90;;
5428;SDS011;2737;52.386;9.980;2022-12-11T07:38:27;30.53;;;14.10;;
5428;SDS011;2737;52.386;9.980;2022-12-11T07:40:54;34.50;;;14.43;;
5428;SDS011;2737;52.386;9.980;2022-12-11T07:43:21;26.40;;;12.13;;
5428;SDS011;2737;52.386;9.980;2022-12-11T07:45:49;28.40;;;12.63;;
5428;SDS011;2737;52.386;9.980;2022-12-11T07:48:16;25.80;;;12.97;;
5428;SDS011;2737;52.386;9.980;2022-12-11T07:50:43;29.00;;;13.43;;
5428;SDS011;2737;52.386;9.980;2022-12-11T07:53:10;32.17;;;14.10;;
5428;SDS011;2737;52.386;9.980;2022-12-11T07:55:37;33.10;;;13.27;;
5428;SDS011;2737;52.386;9.980;2022-12-11T07:58:04;28.03;;;13.87;;
5428;SDS011;2737;52.386;9.980;2022-12-11T08:00:31;28.53;;;12.33;;
5428;SDS011;2737;52.386;9.980;2022-12-11T08:03:00;26.60;;;13.03;;
5428;SDS011;2737;52.386;9.980;2022-12-11T08:05:27;27.13;;;12.67;;
5428;SDS011;2737;52.386;9.980;2022-12-11T08:07:54;28.50;;;13.37;;
5428;SDS011;2737;52.386;9.980;2022-12-11T08:10:21;26.83;;;12.50;;
5428;SDS011;2737;52.386;9.980;2022-12-11T08:12:48;28.90;;;14.33;;
5428;SDS011;2737;52.386;9.980;2022-12-11T08:15:15;30.77;;;12.73;;
5428;SDS011;2737;52.386;9.980;2022-12-11T08:17:42;28.67;;;14.00;;
5428;SDS011;2737;52.386;9.980;2022-12-11T08:20:11;28.53;;;13.60;;
5428;SDS011;2737;52.386;9.980;2022-12-11T08:22:38;25.53;;;12.43;;
5428;SDS011;2737;52.386;9.980;2022-12-11T08:25:05;24.63;;;12.43;;
5428;SDS011;2737;52.386;9.980;2022-12-11T08:27:33;23.33;;;11.07;;
5428;SDS011;2737;52.386;9.980;2022-12-11T08:30:00;26.33;;;12.00;;
5428;SDS011;2737;52.386;9.980;2022-12-11T08:32:27;27.47;;;12.50;;
5428;SDS011;2737;52.386;9.980;2022-12-11T08:34:54;25.77;;;12.23;;
5428;SDS011;2737;52.386;9.980;2022-12-11T08:37:22;22.93;;;11.97;;
5428;SDS011;2737;52.386;9.980;2022-12-11T08:39:49;24.97;;;12.53;;
5428;SDS011;2737;52.386;9.980;2022-12-11T08:42:16;27.33;;;13.63;;
5428;SDS011;2737;52.386;9.980;2022-12-11T08:44:43;26.57;;;12.43;;
5428;SDS011;2737;52.386;9.980;2022-12-11T08:47:11;30.00;;;12.40;;
5428;SDS011;2737;52.386;9.980;2022-12-11T08:49:39;26.73;;;12.23;;
5428;SDS011;2737;52.386;9.980;2022-12-11T08:52:06;25.40;;;11.93;;
5428;SDS011;2737;52.386;9.980;2022-12-11T08:54:35;24.10;;;12.17;;
5428;SDS011;2737;52.386;9.980;2022-12-11T08:57:02;25.13;;;11.83;;
5428;SDS011;2737;52.386;9.980;2022-12-11T08:59:29;27.53;;;12.60;;
5428;SDS011;2737;52.386;9.980;2022-12-11T09:01:57;26.50;;;12.73;;
5428;SDS011;2737;52.386;9.980;2022-12-11T09:04:24;25.40;;;13.30;;
5428;SDS011;2737;52.386;9.980;2022-12-11T09:06:51;25.23;;;11.83;;
5428;SDS011;2737;52.386;9.980;2022-12-11T09:09:18;23.07;;;11.57;;
5428;SDS011;2737;52.386;9.980;2022-12-11T09:11:46;23.30;;;12.20;;
5428;SDS011;2737;52.386;9.980;2022-12-11T09:14:13;21.30;;;11.57;;
5428;SDS011;2737;52.386;9.980;2022-12-11T09:16:41;28.00;;;12.40;;
5428;SDS011;2737;52.386;9.980;2022-12-11T09:19:10;24.50;;;12.10;;
5428;SDS011;2737;52.386;9.980;2022-12-11T09:21:39;21.77;;;11.73;;
5428;SDS011;2737;52.386;9.980;2022-12-11T09:24:07;24.10;;;11.73;;
5428;SDS011;2737;52.386;9.980;2022-12-11T09:26:35;23.77;;;12.40;;
5428;SDS011;2737;52.386;9.980;2022-12-11T09:29:04;24.27;;;12.17;;
5428;SDS011;2737;52.386;9.980;2022-12-11T09:31:32;28.50;;;13.00;;
5428;SDS011;2737;52.386;9.980;2022-12-11T09:34:01;25.80;;;12.60;;
5428;SDS011;2737;52.386;9.980;2022-12-11T09:36:30;30.37;;;12.47;;
5428;SDS011;2737;52.386;9.980;2022-12-11T09:38:58;27.77;;;12.00;;
5428;SDS011;2737;52.386;9.980;2022-12-11T09:41:34;21.03;;;10.97;;
5428;SDS011;2737;52.386;9.980;2022-12-11T09:44:17;23.57;;;12.20;;
5428;SDS011;2737;52.386;9.980;2022-12-11T09:46:49;25.30;;;12.00;;
5428;SDS011;2737;52.386;9.980;2022-12-11T09:49:22;22.80;;;10.10;;
5428;SDS011;2737;52.386;9.980;2022-12-11T09:51:58;26.03;;;13.13;;
5428;SDS011;2737;52.386;9.980;2022-12-11T09:54:32;21.97;;;11.30;;
5428;SDS011;2737;52.386;9.980;2022-12-11T09:57:02;19.40;;;10.77;;
5428;SDS011;2737;52.386;9.980;2022-12-11T09:59:43;26.33;;;11.43;;
5428;SDS011;2737;52.386;9.980;2022-12-11T10:02:23;21.20;;;11.10;;
5428;SDS011;2737;52.386;9.980;2022-12-11T10:05:06;23.63;;;10.30;;
5428;SDS011;2737;52.386;9.980;2022-12-11T10:07:43;20.90;;;12.40;;
5428;SDS011;2737;52.386;9.980;2022-12-11T10:10:19;20.10;;;10.37;;
5428;SDS011;2737;52.386;9.980;2022-12-11T10:12:56;23.80;;;11.53;;
5428;SDS011;2737;52.386;9.980;2022-12-11T10:15:32;24.67;;;11.27;;
5428;SDS011;2737;52.386;9.980;2022-12-11T10:18:04;21.60;;;10.43;;
5428;SDS011;2737;52.386;9.980;2022-12-11T10:20:36;18.60;;;10.60;;
5428;SDS011;2737;52.386;9.980;2022-12-11T10:23:05;22.90;;;11.27;;
5428;SDS011;2737;52.386;9.980;2022-12-11T10:25:35;23.60;;;11.37;;
5428;SDS011;2737;52.386;9.980;2022-12-11T10:28:09;22.67;;;11.40;;
5428;SDS011;2737;52.386;9.980;2022-12-11T10:30:40;27.03;;;11.50;;
5428;SDS011;2737;52.386;9.980;2022-12-11T10:33:13;20.93;;;10.40;;
5428;SDS011;2737;52.386;9.980;2022-12-11T10:35:47;22.50;;;11.70;;
5428;SDS011;2737;52.386;9.980;2022-12-11T10:38:20;23.20;;;11.40;;
5428;SDS011;2737;52.386;9.980;2022-12-11T10:40:49;22.63;;;11.10;;
5428;SDS011;2737;52.386;9.980;2022-12-11T10:43:18;21.27;;;10.60;;
5428;SDS011;2737;52.386;9.980;2022-12-11T10:45:53;20.60;;;9.40;;
5428;SDS011;2737;52.386;9.980;2022-12-11T10:48:20;20.33;;;9.80;;
5428;SDS011;2737;52.386;9.980;2022-12-11T10:50:54;20.77;;;10.50;;
5428;SDS011;2737;52.386;9.980;2022-12-11T10:53:24;23.60;;;10.43;;
5428;SDS011;2737;52.386;9.980;2022-12-11T10:55:51;22.00;;;11.67;;
5428;SDS011;2737;52.386;9.980;2022-12-11T10:58:20;36.00;;;17.40;;
5428;SDS011;2737;52.386;9.980;2022-12-11T11:00:59;48.23;;;19.87;;
5428;SDS011;2737;52.386;9.980;2022-12-11T11:03:30;25.70;;;12.37;;
5428;SDS011;2737;52.386;9.980;2022-12-11T11:06:02;20.67;;;11.37;;
5428;SDS011;2737;52.386;9.980;2022-12-11T11:08:36;19.30;;;10.17;;
5428;SDS011;2737;52.386;9.980;2022-12-11T11:11:05;22.70;;;11.17;;
5428;SDS011;2737;52.386;9.980;2022-12-11T11:13:33;22.77;;;10.57;;
5428;SDS011;2737;52.386;9.980;2022-12-11T11:16:02;23.80;;;11.00;;
5428;SDS011;2737;52.386;9.980;2022-12-11T11:18:31;23.20;;;10.83;;
5428;SDS011;2737;52.386;9.980;2022-12-11T11:20:59;22.50;;;11.03;;
5428;SDS011;2737;52.386;9.980;2022-12-11T11:23:27;24.53;;;11.33;;
5428;SDS011;2737;52.386;9.980;2022-12-11T11:25:55;25.30;;;12.83;;
5428;SDS011;2737;52.386;9.980;2022-12-11T11:28:24;23.00;;;10.57;;
5428;SDS011;2737;52.386;9.980;2022-12-11T11:30:55;22.60;;;10.90;;
5428;SDS011;2737;52.386;9.980;2022-12-11T11:33:29;25.70;;;11.53;;
5428;SDS011;2737;52.386;9.980;2022-12-11T11:35:58;21.73;;;9.73;;
5428;SDS011;2737;52.386;9.980;2022-12-11T11:38:27;22.07;;;10.17;;
5428;SDS011;2737;52.386;9.980;2022-12-11T11:41:00;20.60;;;9.17;;
5428;SDS011;2737;52.386;9.980;2022-12-11T11:43:35;20.37;;;10.03;;
5428;SDS011;2737;52.386;9.980;2022-12-11T11:46:07;27.33;;;10.97;;
5428;SDS011;2737;52.386;9.980;2022-12-11T11:48:44;23.13;;;11.30;;
5428;SDS011;2737;52.386;9.980;2022-12-11T11:51:20;26.33;;;10.80;;
5428;SDS011;2737;52.386;9.980;2022-12-11T11:53:51;24.07;;;10.50;;
5428;SDS011;2737;52.386;9.980;2022-12-11T11:56:22;19.20;;;9.40;;
5428;SDS011;2737;52.386;9.980;2022-12-11T11:59:04;21.13;;;11.07;;
5428;SDS011;2737;52.386;9.980;2022-12-11T12:01:33;25.70;;;12.13;;
5428;SDS011;2737;52.386;9.980;2022-12-11T12:04:02;24.80;;;10.87;;
5428;SDS011;2737;52.386;9.980;2022-12-11T12:06:37;22.90;;;11.07;;
5428;SDS011;2737;52.386;9.980;2022-12-11T12:09:19;22.17;;;10.57;;
5428;SDS011;2737;52.386;9.980;2022-12-11T12:12:01;25.17;;;11.60;;
5428;SDS011;2737;52.386;9.980;2022-12-11T12:14:36;20.70;;;9.30;;
5428;SDS011;2737;52.386;9.980;2022-12-11T12:17:15;19.20;;;8.77;;
5428;SDS011;2737;52.386;9.980;2022-12-11T12:19:52;19.93;;;9.10;;
5428;SDS011;2737;52.386;9.980;2022-12-11T12:25:21;16.87;;;8.10;;
5428;SDS011;2737;52.386;9.980;2022-12-11T12:27:53;20.67;;;9.40;;
5428;SDS011;2737;52.386;9.980;2022-12-11T12:30:25;18.83;;;9.60;;
5428;SDS011;2737;52.386;9.980;2022-12-11T12:33:06;20.27;;;9.67;;
5428;SDS011;2737;52.386;9.980;2022-12-11T12:35:47;19.53;;;10.43;;
5428;SDS011;2737;52.386;9.980;2022-12-11T12:38:22;15.27;;;8.27;;
5428;SDS011;2737;52.386;9.980;2022-12-11T12:41:02;29.17;;;12.03;;
5428;SDS011;2737;52.386;9.980;2022-12-11T12:43:42;20.47;;;9.70;;
5428;SDS011;2737;52.386;9.980;2022-12-11T12:46:22;23.60;;;12.17;;
5428;SDS011;2737;52.386;9.980;2022-12-11T12:48:59;19.30;;;8.73;;
5428;SDS011;2737;52.386;9.980;2022-12-11T12:51:29;20.50;;;8.67;;
5428;SDS011;2737;52.386;9.980;2022-12-11T12:53:58;25.33;;;10.47;;
5428;SDS011;2737;52.386;9.980;2022-12-11T12:56:28;20.30;;;9.73;;
5428;SDS011;2737;52.386;9.980;2022-12-11T12:58:58;20.23;;;8.90;;
5428;SDS011;2737;52.386;9.980;2022-12-11T13:01:25;18.80;;;8.47;;
5428;SDS011;2737;52.386;9.980;2022-12-11T13:03:55;17.70;;;8.90;;
5428;SDS011;2737;52.386;9.980;2022-12-11T13:06:31;15.73;;;8.23;;
5428;SDS011;2737;52.386;9.980;2022-12-11T13:09:11;18.30;;;9.50;;
5428;SDS011;2737;52.386;9.980;2022-12-11T13:11:41;22.23;;;9.23;;
5428;SDS011;2737;52.386;9.980;2022-12-11T13:14:21;21.07;;;8.83;;
5428;SDS011;2737;52.386;9.980;2022-12-11T13:17:03;21.63;;;10.03;;
5428;SDS011;2737;52.386;9.980;2022-12-11T13:19:33;21.60;;;10.27;;
5428;SDS011;2737;52.386;9.980;2022-12-11T13:22:03;22.77;;;10.10;;
5428;SDS011;2737;52.386;9.980;2022-12-11T13:24:45;21.60;;;10.00;;
5428;SDS011;2737;52.386;9.980;2022-12-11T13:27:21;26.00;;;12.23;;
5428;SDS011;2737;52.386;9.980;2022-12-11T13:29:49;21.30;;;11.03;;
5428;SDS011;2737;52.386;9.980;2022-12-11T13:32:20;22.00;;;11.30;;
5428;SDS011;2737;52.386;9.980;2022-12-11T13:34:50;20.80;;;10.77;;
5428;SDS011;2737;52.386;9.980;2022-12-11T13:37:22;22.30;;;9.93;;
5428;SDS011;2737;52.386;9.980;2022-12-11T13:39:52;18.63;;;9.73;;
5428;SDS011;2737;52.386;9.980;2022-12-11T13:42:20;22.50;;;10.40;;
5428;SDS011;2737;52.386;9.980;2022-12-11T13:44:52;24.27;;;11.23;;
5428;SDS011;2737;52.386;9.980;2022-12-11T13:47:20;26.67;;;11.50;;
5428;SDS011;2737;52.386;9.980;2022-12-11T13:49:48;32.60;;;12.60;;
5428;SDS011;2737;52.386;9.980;2022-12-11T13:52:20;23.53;;;10.30;;
5428;SDS011;2737;52.386;9.980;2022-12-11T13:54:52;21.43;;;9.53;;
5428;SDS011;2737;52.386;9.980;2022-12-11T13:57:23;22.70;;;11.33;;
5428;SDS011;2737;52.386;9.980;2022-12-11T13:59:53;24.77;;;10.57;;
5428;SDS011;2737;52.386;9.980;2022-12-11T14:02:21;23.83;;;11.10;;
5428;SDS011;2737;52.386;9.980;2022-12-11T14:04:51;21.30;;;10.20;;
5428;SDS011;2737;52.386;9.980;2022-12-11T14:07:24;22.73;;;10.23;;
5428;SDS011;2737;52.386;9.980;2022-12-11T14:09:54;25.60;;;10.67;;
5428;SDS011;2737;52.386;9.980;2022-12-11T14:12:26;18.47;;;10.03;;
5428;SDS011;2737;52.386;9.980;2022-12-11T14:14:55;29.03;;;11.30;;
5428;SDS011;2737;52.386;9.980;2022-12-11T14:17:27;23.20;;;10.67;;
5428;SDS011;2737;52.386;9.980;2022-12-11T14:19:55;25.17;;;10.73;;
5428;SDS011;2737;52.386;9.980;2022-12-11T14:22:27;24.20;;;11.17;;
5428;SDS011;2737;52.386;9.980;2022-12-11T14:24:56;26.60;;;12.57;;
5428;SDS011;2737;52.386;9.980;2022-12-11T14:27:25;24.90;;;11.53;;
5428;SDS011;2737;52.386;9.980;2022-12-11T14:29:53;20.13;;;10.40;;
5428;SDS011;2737;52.386;9.980;2022-12-11T14:32:23;28.27;;;11.50;;
5428;SDS011;2737;52.386;9.980;2022-12-11T14:34:56;27.33;;;12.80;;
5428;SDS011;2737;52.386;9.980;2022-12-11T14:37:27;27.40;;;11.40;;
5428;SDS011;2737;52.386;9.980;2022-12-11T14:39:55;25.50;;;10.57;;
5428;SDS011;2737;52.386;9.980;2022-12-11T14:42:26;25.43;;;12.00;;
5428;SDS011;2737;52.386;9.980;2022-12-11T14:44:59;23.23;;;11.60;;
5428;SDS011;2737;52.386;9.980;2022-12-11T14:47:31;23.97;;;11.60;;
5428;SDS011;2737;52.386;9.980;2022-12-11T14:50:04;24.07;;;10.67;;
5428;SDS011;2737;52.386;9.980;2022-12-11T14:52:37;27.07;;;12.33;;
5428;SDS011;2737;52.386;9.980;2022-12-11T14:55:07;28.67;;;11.70;;
5428;SDS011;2737;52.386;9.980;2022-12-11T14:57:41;23.03;;;12.20;;
5428;SDS011;2737;52.386;9.980;2022-12-11T15:00:20;25.07;;;11.67;;
5428;SDS011;2737;52.386;9.980;2022-12-11T15:02:55;24.57;;;10.97;;
5428;SDS011;2737;52.386;9.980;2022-12-11T15:05:29;23.03;;;11.77;;
5428;SDS011;2737;52.386;9.980;2022-12-11T15:08:00;26.53;;;11.23;;
5428;SDS011;2737;52.386;9.980;2022-12-11T15:10:54;25.63;;;11.03;;